createdAt,value
2022-09-14T00:02:04.200Z,8.52
2022-09-14T00:07:05.997Z,9.20
2022-09-14T00:12:07.829Z,9.27
2022-09-14T00:17:09.542Z,9.30
2022-09-14T00:22:11.418Z,9.95
2022-09-14T00:27:13.071Z,9.65
2022-09-14T00:32:14.829Z,8.95
2022-09-14T00:37:16.653Z,8.23
2022-09-14T00:42:19.533Z,8.65
2022-09-14T00:47:21.308Z,8.30
2022-09-14T00:52:27.383Z,8.57
2022-09-14T00:57:33.602Z,8.90
2022-09-14T01:02:35.517Z,8.68
2022-09-14T01:08:12.589Z,9.05
2022-09-14T01:13:28.876Z,9.80
2022-09-14T01:18:42.269Z,9.35
2022-09-14T01:24:25.400Z,8.98
2022-09-14T01:29:30.211Z,8.32
2022-09-14T01:34:39.278Z,7.90
2022-09-14T01:39:48.245Z,7.78
2022-09-14T01:44:58.507Z,7.70
2022-09-14T01:50:27.277Z,6.78
2022-09-14T01:55:36.746Z,7.35
2022-09-14T02:00:43.687Z,6.95
2022-09-14T02:05:51.469Z,7.35
2022-09-14T02:10:53.402Z,6.50
2022-09-14T02:15:55.234Z,6.45
2022-09-14T02:21:04.129Z,6.45
2022-09-14T02:26:06.256Z,6.50
2022-09-14T02:31:21.288Z,5.38
2022-09-14T02:36:33.614Z,6.25
2022-09-14T02:41:51.318Z,6.32
2022-09-14T02:47:08.885Z,6.65
2022-09-14T02:52:36.738Z,5.75
2022-09-14T02:58:00.513Z,5.70
2022-09-14T03:03:03.345Z,5.30
2022-09-14T03:08:05.844Z,5.43
2022-09-14T03:13:07.525Z,5.20
2022-09-14T03:18:14.099Z,4.32
2022-09-14T03:23:16.313Z,3.97
2022-09-14T03:28:17.973Z,3.83
2022-09-14T03:33:19.673Z,3.50
2022-09-14T03:38:21.566Z,3.53
2022-09-14T03:43:23.509Z,3.55
2022-09-14T03:48:25.259Z,3.45
2022-09-14T03:53:27.673Z,3.33
2022-09-14T03:58:33.003Z,3.50
2022-09-14T04:03:34.971Z,3.80
2022-09-14T04:08:39.319Z,3.45
2022-09-14T04:13:42.103Z,3.90
2022-09-14T04:18:44.505Z,3.60
2022-09-14T04:24:12.893Z,3.60
2022-09-14T04:29:10.534Z,3.45
2022-09-14T04:34:13.959Z,3.65
2022-09-14T04:39:15.614Z,3.25
2022-09-14T04:44:17.346Z,3.28
2022-09-14T04:49:19.135Z,3.45
2022-09-14T04:54:20.825Z,3.67
2022-09-14T04:59:22.469Z,3.97
2022-09-14T05:04:24.209Z,4.20
2022-09-14T05:09:25.932Z,3.75
2022-09-14T05:14:27.565Z,3.42
2022-09-14T05:19:29.268Z,3.58
2022-09-14T05:24:30.921Z,4.07
2022-09-14T05:29:32.731Z,3.30
2022-09-14T05:34:34.770Z,3.55
2022-09-14T05:39:36.394Z,3.95
2022-09-14T05:44:38.054Z,3.50
2022-09-14T05:49:39.667Z,3.30
2022-09-14T05:54:41.304Z,3.55
2022-09-14T05:59:42.989Z,3.20
2022-09-14T06:04:44.691Z,2.75
2022-09-14T06:09:46.383Z,2.97
2022-09-14T06:14:48.039Z,2.40
2022-09-14T06:19:49.947Z,2.65
2022-09-14T06:24:51.655Z,2.60
2022-09-14T06:29:54.557Z,2.65
2022-09-14T06:34:56.201Z,2.50
2022-09-14T06:39:57.945Z,2.47
2022-09-14T06:44:59.713Z,2.50
2022-09-14T06:50:01.540Z,2.60
2022-09-14T06:55:03.908Z,2.47
2022-09-14T07:00:06.158Z,2.75
2022-09-14T07:05:08.291Z,5.25
2022-09-14T07:10:11.614Z,2.00
2022-09-14T07:15:13.339Z,2.00
2022-09-14T07:20:15.723Z,2.67
2022-09-14T07:25:17.396Z,2.38
2022-09-14T07:30:19.048Z,2.30
2022-09-14T07:35:21.067Z,2.67
2022-09-14T07:40:23.867Z,3.00
2022-09-14T07:45:25.707Z,2.70
2022-09-14T07:50:27.406Z,2.70
2022-09-14T07:55:29.066Z,2.70
2022-09-14T08:00:30.938Z,2.58
2022-09-14T08:05:32.538Z,2.97
2022-09-14T08:10:35.936Z,2.60
2022-09-14T08:15:37.624Z,2.50
2022-09-14T08:20:39.245Z,2.05
2022-09-14T08:25:40.851Z,2.05
2022-09-14T08:30:42.750Z,1.95
2022-09-14T08:35:57.522Z,1.80
2022-09-14T08:41:18.057Z,2.22
2022-09-14T08:46:27.650Z,2.15
2022-09-14T08:51:30.233Z,2.10
2022-09-14T08:56:33.800Z,2.30
2022-09-14T09:02:01.902Z,2.10
2022-09-14T09:07:17.785Z,2.00
2022-09-14T09:12:36.677Z,2.30
2022-09-14T09:17:46.130Z,2.58
2022-09-14T09:23:07.733Z,2.72
2022-09-14T09:28:12.349Z,3.20
2022-09-14T09:33:25.655Z,2.05
2022-09-14T09:38:29.112Z,1.40
2022-09-14T09:43:48.331Z,1.52
2022-09-14T09:48:51.003Z,1.58
2022-09-14T09:53:56.627Z,1.58
2022-09-14T09:58:58.527Z,1.45
2022-09-14T10:04:07.208Z,1.40
2022-09-14T10:09:18.118Z,1.30
2022-09-14T10:14:31.350Z,1.40
2022-09-14T10:19:33.841Z,1.38
2022-09-14T10:24:37.408Z,1.20
2022-09-14T10:29:44.033Z,1.15
2022-09-14T10:34:45.750Z,1.40
2022-09-14T10:40:07.900Z,1.20
2022-09-14T10:45:21.483Z,1.55
2022-09-14T10:50:59.833Z,1.40
2022-09-14T10:56:26.194Z,2.17
2022-09-14T11:02:18.427Z,2.10
2022-09-14T11:07:22.904Z,2.40
2022-09-14T11:12:40.798Z,2.33
2022-09-14T11:18:13.114Z,2.10
2022-09-14T11:23:33.327Z,1.83
2022-09-14T11:29:05.261Z,2.17
2022-09-14T11:34:19.691Z,1.70
2022-09-14T11:39:33.027Z,1.92
2022-09-14T11:44:42.530Z,1.83
2022-09-14T11:50:00.951Z,2.00
2022-09-14T11:55:08.932Z,2.00
2022-09-14T12:00:25.512Z,2.38
2022-09-14T12:05:30.446Z,2.30
2022-09-14T12:11:22.454Z,2.17
2022-09-14T12:16:24.164Z,2.80
2022-09-14T12:21:26.260Z,2.20
2022-09-14T12:26:34.796Z,2.40
2022-09-14T12:31:47.380Z,2.40
2022-09-14T12:36:48.981Z,2.33
2022-09-14T12:41:50.587Z,2.45
2022-09-14T12:46:52.247Z,2.30
2022-09-14T12:51:55.133Z,2.42
2022-09-14T12:57:34.415Z,2.80
2022-09-14T13:03:04.165Z,2.08
2022-09-14T13:08:11.416Z,2.65
2022-09-14T13:13:23.545Z,2.85
2022-09-14T13:18:30.159Z,3.10
2022-09-14T13:23:40.741Z,2.42
2022-09-14T13:28:45.406Z,2.88
2022-09-14T13:33:50.377Z,3.58
2022-09-14T13:38:53.142Z,3.38
2022-09-14T13:43:56.723Z,3.60
2022-09-14T13:48:58.883Z,3.70
2022-09-14T13:54:31.904Z,3.08
2022-09-14T13:59:33.609Z,3.05
2022-09-14T14:04:38.184Z,2.83
2022-09-14T14:09:51.512Z,3.22
2022-09-14T14:15:06.230Z,3.10
2022-09-14T14:20:26.848Z,3.17
2022-09-14T14:25:35.106Z,3.20
2022-09-14T14:30:58.420Z,3.10
2022-09-14T14:36:01.761Z,3.15
2022-09-14T14:41:04.607Z,3.10
2022-09-14T14:46:07.373Z,3.58
2022-09-14T14:51:15.400Z,2.85
2022-09-14T14:56:17.072Z,3.13
2022-09-14T15:01:18.842Z,3.40
2022-09-14T15:06:23.793Z,3.05
2022-09-14T15:11:25.490Z,7.80
2022-09-14T15:16:27.177Z,3.28
2022-09-14T15:21:28.978Z,3.25
2022-09-14T15:26:30.691Z,2.88
2022-09-14T15:31:33.121Z,3.28
2022-09-14T15:36:55.295Z,3.13
2022-09-14T15:41:57.176Z,2.60
2022-09-14T15:46:59.088Z,3.10
2022-09-14T15:52:00.914Z,2.83
2022-09-14T15:57:03.653Z,3.08
2022-09-14T16:02:05.966Z,2.90
2022-09-14T16:07:11.433Z,3.60
2022-09-14T16:12:13.686Z,7.00
2022-09-14T16:17:15.658Z,3.25
2022-09-14T16:22:17.399Z,3.67
2022-09-14T16:27:19.148Z,3.30
2022-09-14T16:32:22.102Z,3.20
2022-09-14T16:37:23.801Z,3.10
2022-09-14T16:42:25.441Z,3.53
2022-09-14T16:47:27.477Z,3.40
2022-09-14T16:52:29.751Z,3.28
2022-09-14T16:57:31.427Z,3.70
2022-09-14T17:02:33.164Z,3.80
2022-09-14T17:07:34.860Z,3.20
2022-09-14T17:12:36.495Z,3.13
2022-09-14T17:17:38.121Z,3.72
2022-09-14T17:22:39.763Z,3.63
2022-09-14T17:27:41.429Z,2.92
2022-09-14T17:32:43.074Z,2.85
2022-09-14T17:37:44.734Z,2.60
2022-09-14T17:42:46.351Z,2.53
2022-09-14T17:47:48.003Z,3.90
2022-09-14T17:52:50.489Z,3.00
2022-09-14T17:57:52.895Z,3.22
2022-09-14T18:02:54.845Z,3.53
2022-09-14T18:07:57.621Z,3.50
2022-09-14T18:12:59.331Z,3.53
2022-09-14T18:18:01.168Z,4.03
2022-09-14T18:23:02.810Z,3.67
2022-09-14T18:28:04.499Z,3.75
2022-09-14T18:33:06.189Z,3.92
2022-09-14T18:38:08.071Z,3.17
2022-09-14T18:43:10.906Z,2.67
2022-09-14T18:48:13.156Z,2.90
2022-09-14T18:53:14.844Z,3.00
2022-09-14T18:58:16.594Z,3.13
2022-09-14T19:03:18.261Z,2.80
2022-09-14T19:08:19.909Z,3.20
2022-09-14T19:13:21.547Z,6.88
2022-09-14T19:18:23.551Z,4.40
2022-09-14T19:23:25.187Z,3.08
2022-09-14T19:28:26.841Z,3.22
2022-09-14T19:33:30.928Z,3.28
2022-09-14T19:38:32.840Z,4.15
2022-09-14T19:43:35.047Z,3.38
2022-09-14T19:48:37.304Z,3.45
2022-09-14T19:53:39.107Z,4.22
2022-09-14T19:58:44.862Z,4.22
2022-09-14T20:03:47.880Z,3.20
2022-09-14T20:08:55.690Z,3.72
2022-09-14T20:13:59.605Z,4.28
2022-09-14T20:19:06.173Z,3.88
2022-09-14T20:24:16.232Z,4.10
2022-09-14T20:29:20.568Z,4.10
2022-09-14T20:34:22.573Z,4.28
2022-09-14T20:39:24.620Z,4.60
2022-09-14T20:44:26.472Z,4.57
2022-09-14T20:49:28.200Z,4.45
2022-09-14T20:54:30.320Z,3.65
2022-09-14T20:59:32.097Z,4.47
2022-09-14T21:04:35.641Z,4.15
2022-09-14T21:09:37.364Z,4.30
2022-09-14T21:14:39.092Z,4.43
2022-09-14T21:19:40.913Z,5.60
2022-09-14T21:24:42.572Z,6.18
2022-09-14T21:29:44.229Z,7.20
2022-09-14T21:34:46.026Z,8.48
2022-09-14T21:39:47.900Z,9.25
2022-09-14T21:44:50.327Z,9.25
2022-09-14T21:49:51.983Z,8.35
2022-09-14T21:54:53.779Z,9.02
2022-09-14T21:59:55.419Z,8.80
2022-09-14T22:04:57.969Z,8.68
2022-09-14T22:09:59.614Z,8.38
2022-09-14T22:15:01.252Z,8.07
2022-09-14T22:20:03.420Z,7.57
2022-09-14T22:25:06.425Z,7.57
2022-09-14T22:30:08.954Z,7.38
2022-09-14T22:35:10.820Z,6.72
2022-09-14T22:40:12.470Z,7.13
2022-09-14T22:45:14.177Z,7.65
2022-09-14T22:50:15.835Z,7.68
2022-09-14T22:55:17.579Z,7.32
2022-09-14T23:00:19.519Z,7.70
2022-09-14T23:05:21.212Z,7.55
2022-09-14T23:10:23.482Z,7.38
2022-09-14T23:15:25.185Z,7.30
2022-09-14T23:20:26.901Z,7.70
2022-09-14T23:25:28.557Z,7.82
2022-09-14T23:30:31.190Z,7.95
2022-09-14T23:35:35.778Z,7.90
2022-09-14T23:40:39.362Z,7.43
2022-09-14T23:45:41.033Z,8.65
2022-09-14T23:50:42.789Z,9.07
2022-09-14T23:55:44.410Z,9.63
